sensor_id;sensor_type;location;lat;lon;timestamp;temperature;humidity
78611;SHT30;67932;50.474;4.436;2023-05-09T00:02:04;13.54;85.11
78611;SHT30;67932;50.474;4.436;2023-05-09T00:04:31;13.50;85.18
78611;SHT30;67932;50.474;4.436;2023-05-09T00:06:57;13.51;85.13
78611;SHT30;67932;50.474;4.436;2023-05-09T00:09:24;13.48;85.57
78611;SHT30;67932;50.474;4.436;2023-05-09T00:11:50;13.46;85.49
78611;SHT30;67932;50.474;4.436;2023-05-09T00:14:16;13.48;85.31
78611;SHT30;67932;50.474;4.436;2023-05-09T00:16:44;13.44;85.39
78611;SHT30;67932;50.474;4.436;2023-05-09T00:19:10;13.50;85.27
78611;SHT30;67932;50.474;4.436;2023-05-09T00:21:38;13.50;85.36
78611;SHT30;67932;50.474;4.436;2023-05-09T00:24:05;13.47;85.69
78611;SHT30;67932;50.474;4.436;2023-05-09T00:26:31;13.44;85.58
78611;SHT30;67932;50.474;4.436;2023-05-09T00:28:57;13.48;85.42
78611;SHT30;67932;50.474;4.436;2023-05-09T00:31:23;13.47;85.57
78611;SHT30;67932;50.474;4.436;2023-05-09T00:33:50;13.48;86.14
78611;SHT30;67932;50.474;4.436;2023-05-09T00:36:16;13.46;85.75
78611;SHT30;67932;50.474;4.436;2023-05-09T00:38:42;13.44;85.75
78611;SHT30;67932;50.474;4.436;2023-05-09T00:41:08;13.47;85.71
78611;SHT30;67932;50.474;4.436;2023-05-09T00:43:34;13.43;85.48
78611;SHT30;67932;50.474;4.436;2023-05-09T00:46:01;13.44;85.68
78611;SHT30;67932;50.474;4.436;2023-05-09T00:48:27;13.47;85.94
78611;SHT30;67932;50.474;4.436;2023-05-09T00:50:53;13.50;85.44
78611;SHT30;67932;50.474;4.436;2023-05-09T00:53:20;13.48;85.56
78611;SHT30;67932;50.474;4.436;2023-05-09T00:55:46;13.50;85.03
78611;SHT30;67932;50.474;4.436;2023-05-09T00:58:13;13.55;84.87
78611;SHT30;67932;50.474;4.436;2023-05-09T01:00:39;13.58;84.46
78611;SHT30;67932;50.474;4.436;2023-05-09T01:03:06;13.67;83.72
78611;SHT30;67932;50.474;4.436;2023-05-09T01:11:14;13.67;84.10
78611;SHT30;67932;50.474;4.436;2023-05-09T01:16:37;13.61;84.46
78611;SHT30;67932;50.474;4.436;2023-05-09T01:21:55;13.57;84.56
78611;SHT30;67932;50.474;4.436;2023-05-09T01:27:45;13.53;85.29
78611;SHT30;67932;50.474;4.436;2023-05-09T01:30:13;13.46;85.66
78611;SHT30;67932;50.474;4.436;2023-05-09T01:32:42;13.43;85.65
78611;SHT30;67932;50.474;4.436;2023-05-09T01:35:13;13.43;85.75
78611;SHT30;67932;50.474;4.436;2023-05-09T01:37:42;13.43;85.55
78611;SHT30;67932;50.474;4.436;2023-05-09T01:40:20;13.46;85.26
78611;SHT30;67932;50.474;4.436;2023-05-09T01:42:55;13.44;85.51
78611;SHT30;67932;50.474;4.436;2023-05-09T01:45:22;13.43;85.42
78611;SHT30;67932;50.474;4.436;2023-05-09T01:47:49;13.37;85.62
78611;SHT30;67932;50.474;4.436;2023-05-09T01:50:17;13.34;86.07
78611;SHT30;67932;50.474;4.436;2023-05-09T01:52:47;13.34;85.92
78611;SHT30;67932;50.474;4.436;2023-05-09T01:55:15;13.33;85.79
78611;SHT30;67932;50.474;4.436;2023-05-09T01:57:43;13.30;85.94
78611;SHT30;67932;50.474;4.436;2023-05-09T02:00:11;13.31;85.69
78611;SHT30;67932;50.474;4.436;2023-05-09T02:02:39;13.36;85.58
78611;SHT30;67932;50.474;4.436;2023-05-09T02:05:07;13.46;85.03
78611;SHT30;67932;50.474;4.436;2023-05-09T02:07:34;13.51;85.41
78611;SHT30;67932;50.474;4.436;2023-05-09T02:10:02;13.51;85.09
78611;SHT30;67932;50.474;4.436;2023-05-09T02:12:29;13.53;85.17
78611;SHT30;67932;50.474;4.436;2023-05-09T02:14:56;13.54;85.35
78611;SHT30;67932;50.474;4.436;2023-05-09T02:17:22;13.57;84.82
78611;SHT30;67932;50.474;4.436;2023-05-09T02:19:48;13.57;84.75
78611;SHT30;67932;50.474;4.436;2023-05-09T02:22:14;13.58;84.61
78611;SHT30;67932;50.474;4.436;2023-05-09T02:24:42;13.65;84.32
78611;SHT30;67932;50.474;4.436;2023-05-09T02:27:11;13.64;84.42
78611;SHT30;67932;50.474;4.436;2023-05-09T02:29:58;13.64;84.60
78611;SHT30;67932;50.474;4.436;2023-05-09T02:32:30;13.64;84.14
78611;SHT30;67932;50.474;4.436;2023-05-09T02:34:58;13.70;84.47
78611;SHT30;67932;50.474;4.436;2023-05-09T02:37:26;13.71;84.45
78611;SHT30;67932;50.474;4.436;2023-05-09T02:39:53;13.72;84.43
78611;SHT30;67932;50.474;4.436;2023-05-09T02:42:25;13.68;84.54
78611;SHT30;67932;50.474;4.436;2023-05-09T02:44:54;13.81;83.96
78611;SHT30;67932;50.474;4.436;2023-05-09T02:47:21;13.89;83.08
78611;SHT30;67932;50.474;4.436;2023-05-09T02:49:47;13.88;83.29
78611;SHT30;67932;50.474;4.436;2023-05-09T02:52:14;13.92;83.52
78611;SHT30;67932;50.474;4.436;2023-05-09T02:54:40;13.97;83.15
78611;SHT30;67932;50.474;4.436;2023-05-09T02:57:06;14.05;83.01
78611;SHT30;67932;50.474;4.436;2023-05-09T02:59:33;14.04;83.31
78611;SHT30;67932;50.474;4.436;2023-05-09T03:01:59;14.05;83.20
78611;SHT30;67932;50.474;4.436;2023-05-09T03:04:25;14.11;83.17
78611;SHT30;67932;50.474;4.436;2023-05-09T03:06:52;14.06;82.77
78611;SHT30;67932;50.474;4.436;2023-05-09T03:09:18;14.05;83.57
78611;SHT30;67932;50.474;4.436;2023-05-09T03:11:45;14.04;83.67
78611;SHT30;67932;50.474;4.436;2023-05-09T03:14:11;14.08;83.57
78611;SHT30;67932;50.474;4.436;2023-05-09T03:16:39;14.04;83.89
78611;SHT30;67932;50.474;4.436;2023-05-09T03:19:06;14.04;83.93
78611;SHT30;67932;50.474;4.436;2023-05-09T03:21:32;14.02;84.03
78611;SHT30;67932;50.474;4.436;2023-05-09T03:23:58;14.05;83.79
78611;SHT30;67932;50.474;4.436;2023-05-09T03:26:24;14.06;83.70
78611;SHT30;67932;50.474;4.436;2023-05-09T03:28:51;14.09;83.54
78611;SHT30;67932;50.474;4.436;2023-05-09T03:31:17;14.12;83.55
78611;SHT30;67932;50.474;4.436;2023-05-09T03:33:44;14.12;83.41
78611;SHT30;67932;50.474;4.436;2023-05-09T03:36:10;14.18;83.31
78611;SHT30;67932;50.474;4.436;2023-05-09T03:38:36;14.19;83.12
78611;SHT30;67932;50.474;4.436;2023-05-09T03:41:03;14.22;82.96
78611;SHT30;67932;50.474;4.436;2023-05-09T03:43:29;14.22;82.86
78611;SHT30;67932;50.474;4.436;2023-05-09T03:45:55;14.23;83.03
78611;SHT30;67932;50.474;4.436;2023-05-09T03:48:22;14.33;83.05
78611;SHT30;67932;50.474;4.436;2023-05-09T03:50:48;14.28;83.64
78611;SHT30;67932;50.474;4.436;2023-05-09T03:53:14;14.26;83.89
78611;SHT30;67932;50.474;4.436;2023-05-09T03:55:40;14.18;84.17
78611;SHT30;67932;50.474;4.436;2023-05-09T03:58:07;14.13;84.82
78611;SHT30;67932;50.474;4.436;2023-05-09T04:00:33;14.13;85.09
78611;SHT30;67932;50.474;4.436;2023-05-09T04:02:59;14.09;85.03
78611;SHT30;67932;50.474;4.436;2023-05-09T04:05:26;13.97;85.98
78611;SHT30;67932;50.474;4.436;2023-05-09T04:07:52;14.00;85.92
78611;SHT30;67932;50.474;4.436;2023-05-09T04:10:18;14.00;85.95
78611;SHT30;67932;50.474;4.436;2023-05-09T04:12:44;14.00;85.98
78611;SHT30;67932;50.474;4.436;2023-05-09T04:15:11;14.00;86.17
78611;SHT30;67932;50.474;4.436;2023-05-09T04:17:37;14.02;85.96
78611;SHT30;67932;50.474;4.436;2023-05-09T04:20:04;14.05;85.64
78611;SHT30;67932;50.474;4.436;2023-05-09T04:22:31;14.08;85.71
78611;SHT30;67932;50.474;4.436;2023-05-09T04:24:57;13.98;86.25
78611;SHT30;67932;50.474;4.436;2023-05-09T04:27:24;14.05;86.13
78611;SHT30;67932;50.474;4.436;2023-05-09T04:29:50;14.04;85.46
78611;SHT30;67932;50.474;4.436;2023-05-09T04:32:18;14.01;85.51
78611;SHT30;67932;50.474;4.436;2023-05-09T04:34:45;14.01;85.98
78611;SHT30;67932;50.474;4.436;2023-05-09T04:37:12;14.00;86.25
78611;SHT30;67932;50.474;4.436;2023-05-09T04:39:38;14.01;86.44
78611;SHT30;67932;50.474;4.436;2023-05-09T04:42:05;13.97;86.52
78611;SHT30;67932;50.474;4.436;2023-05-09T04:44:31;13.94;86.45
78611;SHT30;67932;50.474;4.436;2023-05-09T04:46:58;13.95;86.38
78611;SHT30;67932;50.474;4.436;2023-05-09T04:49:24;13.98;86.71
78611;SHT30;67932;50.474;4.436;2023-05-09T04:51:51;13.94;86.94
78611;SHT30;67932;50.474;4.436;2023-05-09T04:54:17;13.89;87.21
78611;SHT30;67932;50.474;4.436;2023-05-09T04:56:43;13.89;87.02
78611;SHT30;67932;50.474;4.436;2023-05-09T04:59:09;13.91;87.03
78611;SHT30;67932;50.474;4.436;2023-05-09T05:01:35;13.91;87.13
78611;SHT30;67932;50.474;4.436;2023-05-09T05:04:02;13.91;87.15
78611;SHT30;67932;50.474;4.436;2023-05-09T05:06:28;13.95;87.03
78611;SHT30;67932;50.474;4.436;2023-05-09T05:08:54;13.97;87.25
78611;SHT30;67932;50.474;4.436;2023-05-09T05:11:21;14.00;87.22
78611;SHT30;67932;50.474;4.436;2023-05-09T05:13:47;14.00;87.08
78611;SHT30;67932;50.474;4.436;2023-05-09T05:16:13;13.94;87.62
78611;SHT30;67932;50.474;4.436;2023-05-09T05:18:39;13.91;88.27
78611;SHT30;67932;50.474;4.436;2023-05-09T05:21:06;13.95;87.77
78611;SHT30;67932;50.474;4.436;2023-05-09T05:23:32;13.97;88.06
78611;SHT30;67932;50.474;4.436;2023-05-09T05:25:58;13.95;88.18
78611;SHT30;67932;50.474;4.436;2023-05-09T05:28:24;13.88;88.68
78611;SHT30;67932;50.474;4.436;2023-05-09T05:30:51;13.83;89.11
78611;SHT30;67932;50.474;4.436;2023-05-09T05:33:17;13.83;88.37
78611;SHT30;67932;50.474;4.436;2023-05-09T05:35:43;13.91;88.31
78611;SHT30;67932;50.474;4.436;2023-05-09T05:38:09;13.89;88.52
78611;SHT30;67932;50.474;4.436;2023-05-09T05:40:35;13.86;88.52
78611;SHT30;67932;50.474;4.436;2023-05-09T05:43:02;13.95;88.41
78611;SHT30;67932;50.474;4.436;2023-05-09T05:45:28;13.88;88.91
78611;SHT30;67932;50.474;4.436;2023-05-09T05:47:55;13.92;88.62
78611;SHT30;67932;50.474;4.436;2023-05-09T05:50:22;14.00;88.30
78611;SHT30;67932;50.474;4.436;2023-05-09T05:52:48;13.98;88.50
78611;SHT30;67932;50.474;4.436;2023-05-09T05:55:15;13.98;87.98
78611;SHT30;67932;50.474;4.436;2023-05-09T05:57:41;14.02;88.10
78611;SHT30;67932;50.474;4.436;2023-05-09T06:00:08;14.08;87.70
78611;SHT30;67932;50.474;4.436;2023-05-09T06:02:36;14.18;87.74
78611;SHT30;67932;50.474;4.436;2023-05-09T06:05:03;14.16;87.56
78611;SHT30;67932;50.474;4.436;2023-05-09T06:07:29;14.21;87.57
78611;SHT30;67932;50.474;4.436;2023-05-09T06:09:55;14.16;88.00
78611;SHT30;67932;50.474;4.436;2023-05-09T06:12:21;14.15;88.03
78611;SHT30;67932;50.474;4.436;2023-05-09T06:14:47;14.12;88.05
78611;SHT30;67932;50.474;4.436;2023-05-09T06:17:14;14.16;88.07
78611;SHT30;67932;50.474;4.436;2023-05-09T06:19:40;14.25;87.93
78611;SHT30;67932;50.474;4.436;2023-05-09T06:22:06;14.26;87.10
78611;SHT30;67932;50.474;4.436;2023-05-09T06:24:32;14.29;87.06
78611;SHT30;67932;50.474;4.436;2023-05-09T06:26:59;14.16;87.58
78611;SHT30;67932;50.474;4.436;2023-05-09T06:29:25;14.26;87.53
78611;SHT30;67932;50.474;4.436;2023-05-09T06:31:51;14.21;87.78
78611;SHT30;67932;50.474;4.436;2023-05-09T06:34:18;14.16;87.58
78611;SHT30;67932;50.474;4.436;2023-05-09T06:36:44;14.16;87.88
78611;SHT30;67932;50.474;4.436;2023-05-09T06:39:10;14.11;87.65
78611;SHT30;67932;50.474;4.436;2023-05-09T06:41:36;14.12;88.19
78611;SHT30;67932;50.474;4.436;2023-05-09T06:44:03;14.11;88.33
78611;SHT30;67932;50.474;4.436;2023-05-09T06:46:29;14.06;87.98
78611;SHT30;67932;50.474;4.436;2023-05-09T06:48:55;14.11;88.41
78611;SHT30;67932;50.474;4.436;2023-05-09T06:51:21;14.02;88.12
78611;SHT30;67932;50.474;4.436;2023-05-09T06:53:48;14.12;88.05
78611;SHT30;67932;50.474;4.436;2023-05-09T06:56:14;14.13;86.89
78611;SHT30;67932;50.474;4.436;2023-05-09T06:58:41;14.16;87.45
78611;SHT30;67932;50.474;4.436;2023-05-09T07:01:07;14.12;88.18
78611;SHT30;67932;50.474;4.436;2023-05-09T07:03:33;14.09;88.20
78611;SHT30;67932;50.474;4.436;2023-05-09T07:06:00;14.01;88.76
78611;SHT30;67932;50.474;4.436;2023-05-09T07:08:27;14.15;88.62
78611;SHT30;67932;50.474;4.436;2023-05-09T07:10:53;14.08;87.89
78611;SHT30;67932;50.474;4.436;2023-05-09T07:13:19;14.00;88.34
78611;SHT30;67932;50.474;4.436;2023-05-09T07:15:45;14.01;88.36
78611;SHT30;67932;50.474;4.436;2023-05-09T07:18:12;13.95;88.43
78611;SHT30;67932;50.474;4.436;2023-05-09T07:20:38;13.97;88.70
78611;SHT30;67932;50.474;4.436;2023-05-09T07:23:04;13.94;88.44
78611;SHT30;67932;50.474;4.436;2023-05-09T07:25:31;13.88;88.68
78611;SHT30;67932;50.474;4.436;2023-05-09T07:27:57;13.86;89.17
78611;SHT30;67932;50.474;4.436;2023-05-09T07:30:23;13.82;88.95
78611;SHT30;67932;50.474;4.436;2023-05-09T07:32:50;13.77;87.74
78611;SHT30;67932;50.474;4.436;2023-05-09T07:35:17;13.82;88.45
78611;SHT30;67932;50.474;4.436;2023-05-09T07:37:43;13.85;89.47
78611;SHT30;67932;50.474;4.436;2023-05-09T07:40:10;13.86;88.78
78611;SHT30;67932;50.474;4.436;2023-05-09T07:42:37;13.83;88.05
78611;SHT30;67932;50.474;4.436;2023-05-09T07:45:04;13.85;88.00
78611;SHT30;67932;50.474;4.436;2023-05-09T07:47:31;13.71;88.14
78611;SHT30;67932;50.474;4.436;2023-05-09T07:49:58;13.74;87.99
78611;SHT30;67932;50.474;4.436;2023-05-09T07:52:24;13.85;88.36
78611;SHT30;67932;50.474;4.436;2023-05-09T07:54:50;13.72;88.51
78611;SHT30;67932;50.474;4.436;2023-05-09T07:57:16;13.81;88.84
78611;SHT30;67932;50.474;4.436;2023-05-09T07:59:43;13.86;88.35
78611;SHT30;67932;50.474;4.436;2023-05-09T08:02:09;13.75;87.29
78611;SHT30;67932;50.474;4.436;2023-05-09T08:04:36;13.75;88.37
78611;SHT30;67932;50.474;4.436;2023-05-09T08:07:06;13.77;88.26
78611;SHT30;67932;50.474;4.436;2023-05-09T08:09:34;13.82;88.96
78611;SHT30;67932;50.474;4.436;2023-05-09T08:12:00;13.79;88.90
78611;SHT30;67932;50.474;4.436;2023-05-09T08:14:26;13.88;88.39
78611;SHT30;67932;50.474;4.436;2023-05-09T08:16:52;13.79;88.92
78611;SHT30;67932;50.474;4.436;2023-05-09T08:19:19;13.67;89.50
78611;SHT30;67932;50.474;4.436;2023-05-09T08:21:48;13.65;89.35
78611;SHT30;67932;50.474;4.436;2023-05-09T08:24:14;13.58;89.51
78611;SHT30;67932;50.474;4.436;2023-05-09T08:26:40;13.58;90.16
78611;SHT30;67932;50.474;4.436;2023-05-09T08:29:07;13.54;89.46
78611;SHT30;67932;50.474;4.436;2023-05-09T08:31:33;13.61;89.67
78611;SHT30;67932;50.474;4.436;2023-05-09T08:34:00;13.64;89.34
78611;SHT30;67932;50.474;4.436;2023-05-09T08:36:26;13.65;89.36
78611;SHT30;67932;50.474;4.436;2023-05-09T08:38:53;13.62;89.60
78611;SHT30;67932;50.474;4.436;2023-05-09T08:41:23;13.58;90.13
78611;SHT30;67932;50.474;4.436;2023-05-09T08:43:52;13.62;89.86
78611;SHT30;67932;50.474;4.436;2023-05-09T08:46:30;13.58;89.34
78611;SHT30;67932;50.474;4.436;2023-05-09T08:48:58;13.57;90.05
78611;SHT30;67932;50.474;4.436;2023-05-09T08:51:26;13.50;90.45
78611;SHT30;67932;50.474;4.436;2023-05-09T08:53:54;13.53;89.89
78611;SHT30;67932;50.474;4.436;2023-05-09T08:56:20;13.55;89.95
78611;SHT30;67932;50.474;4.436;2023-05-09T08:58:47;13.51;89.53
78611;SHT30;67932;50.474;4.436;2023-05-09T09:01:14;13.46;89.66
78611;SHT30;67932;50.474;4.436;2023-05-09T09:03:42;13.43;89.73
78611;SHT30;67932;50.474;4.436;2023-05-09T09:06:12;13.38;89.76
78611;SHT30;67932;50.474;4.436;2023-05-09T09:08:40;13.44;89.48
78611;SHT30;67932;50.474;4.436;2023-05-09T09:11:09;13.53;89.92
78611;SHT30;67932;50.474;4.436;2023-05-09T09:13:38;13.61;90.15
78611;SHT30;67932;50.474;4.436;2023-05-09T09:16:08;13.57;89.94
78611;SHT30;67932;50.474;4.436;2023-05-09T09:18:36;13.58;90.23
78611;SHT30;67932;50.474;4.436;2023-05-09T09:21:08;13.51;90.03
78611;SHT30;67932;50.474;4.436;2023-05-09T09:23:38;13.53;89.93
78611;SHT30;67932;50.474;4.436;2023-05-09T09:26:04;13.47;90.00
78611;SHT30;67932;50.474;4.436;2023-05-09T09:28:31;13.46;90.13
78611;SHT30;67932;50.474;4.436;2023-05-09T09:30:57;13.50;90.82
78611;SHT30;67932;50.474;4.436;2023-05-09T09:33:27;13.47;90.57
78611;SHT30;67932;50.474;4.436;2023-05-09T09:35:55;13.47;91.08
78611;SHT30;67932;50.474;4.436;2023-05-09T09:38:22;13.38;91.42
78611;SHT30;67932;50.474;4.436;2023-05-09T09:40:53;13.44;91.49
78611;SHT30;67932;50.474;4.436;2023-05-09T09:43:25;13.46;91.14
78611;SHT30;67932;50.474;4.436;2023-05-09T09:45:53;13.50;90.99
78611;SHT30;67932;50.474;4.436;2023-05-09T09:48:26;13.53;91.00
78611;SHT30;67932;50.474;4.436;2023-05-09T09:50:55;13.57;91.08
78611;SHT30;67932;50.474;4.436;2023-05-09T09:53:22;13.58;91.18
78611;SHT30;67932;50.474;4.436;2023-05-09T09:55:50;13.65;90.71
78611;SHT30;67932;50.474;4.436;2023-05-09T09:58:19;13.61;90.89
78611;SHT30;67932;50.474;4.436;2023-05-09T10:01:11;13.61;90.68
78611;SHT30;67932;50.474;4.436;2023-05-09T10:03:45;13.68;89.54
78611;SHT30;67932;50.474;4.436;2023-05-09T10:06:14;13.64;89.43
78611;SHT30;67932;50.474;4.436;2023-05-09T10:08:43;13.58;90.74
78611;SHT30;67932;50.474;4.436;2023-05-09T10:11:12;13.58;90.94
78611;SHT30;67932;50.474;4.436;2023-05-09T10:13:38;13.57;90.65
78611;SHT30;67932;50.474;4.436;2023-05-09T10:16:06;13.55;90.60
78611;SHT30;67932;50.474;4.436;2023-05-09T10:18:34;13.67;90.96
78611;SHT30;67932;50.474;4.436;2023-05-09T10:21:00;13.77;90.06
78611;SHT30;67932;50.474;4.436;2023-05-09T10:23:33;13.71;90.07
78611;SHT30;67932;50.474;4.436;2023-05-09T10:26:11;13.68;89.27
78611;SHT30;67932;50.474;4.436;2023-05-09T10:28:41;13.64;89.89
78611;SHT30;67932;50.474;4.436;2023-05-09T10:31:19;13.54;90.03
78611;SHT30;67932;50.474;4.436;2023-05-09T10:33:48;13.60;89.42
78611;SHT30;67932;50.474;4.436;2023-05-09T10:36:17;13.67;89.88
78611;SHT30;67932;50.474;4.436;2023-05-09T10:38:47;13.64;91.50
78611;SHT30;67932;50.474;4.436;2023-05-09T10:41:15;13.58;90.68
78611;SHT30;67932;50.474;4.436;2023-05-09T10:43:42;13.58;90.51
78611;SHT30;67932;50.474;4.436;2023-05-09T10:46:09;13.64;90.41
78611;SHT30;67932;50.474;4.436;2023-05-09T10:48:37;13.57;89.51
78611;SHT30;67932;50.474;4.436;2023-05-09T10:51:04;13.54;90.55
78611;SHT30;67932;50.474;4.436;2023-05-09T10:53:49;13.57;91.16
78611;SHT30;67932;50.474;4.436;2023-05-09T10:56:32;13.60;90.42
78611;SHT30;67932;50.474;4.436;2023-05-09T10:59:00;13.70;90.26
78611;SHT30;67932;50.474;4.436;2023-05-09T11:01:37;13.67;90.44
78611;SHT30;67932;50.474;4.436;2023-05-09T11:04:15;13.62;90.47
78611;SHT30;67932;50.474;4.436;2023-05-09T11:06:50;13.62;90.97
78611;SHT30;67932;50.474;4.436;2023-05-09T11:09:27;13.61;90.26
78611;SHT30;67932;50.474;4.436;2023-05-09T11:12:13;13.58;90.54
78611;SHT30;67932;50.474;4.436;2023-05-09T11:14:47;13.70;90.63
78611;SHT30;67932;50.474;4.436;2023-05-09T11:22:30;13.62;91.24
78611;SHT30;67932;50.474;4.436;2023-05-09T11:27:48;13.64;92.15
78611;SHT30;67932;50.474;4.436;2023-05-09T11:30:16;13.54;92.32
78611;SHT30;67932;50.474;4.436;2023-05-09T11:32:49;13.53;92.46
78611;SHT30;67932;50.474;4.436;2023-05-09T11:35:17;13.28;91.99
78611;SHT30;67932;50.474;4.436;2023-05-09T11:37:50;13.10;91.58
78611;SHT30;67932;50.474;4.436;2023-05-09T11:40:19;12.97;91.96
78611;SHT30;67932;50.474;4.436;2023-05-09T11:42:51;12.87;92.38
78611;SHT30;67932;50.474;4.436;2023-05-09T11:45:22;12.80;92.85
78611;SHT30;67932;50.474;4.436;2023-05-09T11:47:50;12.82;92.31
78611;SHT30;67932;50.474;4.436;2023-05-09T11:50:18;12.70;91.44
78611;SHT30;67932;50.474;4.436;2023-05-09T11:52:45;12.66;90.93
78611;SHT30;67932;50.474;4.436;2023-05-09T11:55:14;12.64;91.70
78611;SHT30;67932;50.474;4.436;2023-05-09T11:57:50;12.73;92.11
78611;SHT30;67932;50.474;4.436;2023-05-09T12:00:18;12.80;92.57
78611;SHT30;67932;50.474;4.436;2023-05-09T12:02:45;12.79;92.66
78611;SHT30;67932;50.474;4.436;2023-05-09T12:05:18;12.76;92.00
78611;SHT30;67932;50.474;4.436;2023-05-09T12:07:45;12.82;92.00
78611;SHT30;67932;50.474;4.436;2023-05-09T12:10:14;12.75;91.88
78611;SHT30;67932;50.474;4.436;2023-05-09T12:12:44;12.72;91.57
78611;SHT30;67932;50.474;4.436;2023-05-09T12:15:11;12.75;91.67
78611;SHT30;67932;50.474;4.436;2023-05-09T12:17:39;12.60;91.64
78611;SHT30;67932;50.474;4.436;2023-05-09T12:20:06;12.62;91.95
78611;SHT30;67932;50.474;4.436;2023-05-09T12:22:33;12.52;91.29
78611;SHT30;67932;50.474;4.436;2023-05-09T12:25:06;12.48;91.50
78611;SHT30;67932;50.474;4.436;2023-05-09T12:27:34;12.46;91.56
78611;SHT30;67932;50.474;4.436;2023-05-09T12:30:02;12.46;92.58
78611;SHT30;67932;50.474;4.436;2023-05-09T12:32:33;12.48;91.97
78611;SHT30;67932;50.474;4.436;2023-05-09T12:35:01;12.39;91.67
78611;SHT30;67932;50.474;4.436;2023-05-09T12:37:30;12.36;91.80
78611;SHT30;67932;50.474;4.436;2023-05-09T12:40:10;12.42;91.91
78611;SHT30;67932;50.474;4.436;2023-05-09T12:42:43;12.32;91.73
78611;SHT30;67932;50.474;4.436;2023-05-09T12:45:11;12.36;91.88
78611;SHT30;67932;50.474;4.436;2023-05-09T12:47:38;12.36;92.51
78611;SHT30;67932;50.474;4.436;2023-05-09T12:50:05;12.43;92.12
78611;SHT30;67932;50.474;4.436;2023-05-09T12:52:40;12.41;92.02
78611;SHT30;67932;50.474;4.436;2023-05-09T12:55:12;12.43;91.31
78611;SHT30;67932;50.474;4.436;2023-05-09T12:57:39;12.32;90.90
78611;SHT30;67932;50.474;4.436;2023-05-09T13:00:08;12.29;91.96
78611;SHT30;67932;50.474;4.436;2023-05-09T13:02:39;12.25;91.14
78611;SHT30;67932;50.474;4.436;2023-05-09T13:05:07;12.22;92.20
78611;SHT30;67932;50.474;4.436;2023-05-09T13:07:39;12.19;91.85
78611;SHT30;67932;50.474;4.436;2023-05-09T13:10:11;12.22;92.13
78611;SHT30;67932;50.474;4.436;2023-05-09T13:12:39;12.19;93.06
78611;SHT30;67932;50.474;4.436;2023-05-09T13:15:06;12.15;93.05
78611;SHT30;67932;50.474;4.436;2023-05-09T13:17:33;12.17;93.33
78611;SHT30;67932;50.474;4.436;2023-05-09T13:19:59;12.25;93.35
78611;SHT30;67932;50.474;4.436;2023-05-09T13:22:26;12.29;93.93
78611;SHT30;67932;50.474;4.436;2023-05-09T13:24:52;12.38;93.32
78611;SHT30;67932;50.474;4.436;2023-05-09T13:27:18;12.38;93.05
78611;SHT30;67932;50.474;4.436;2023-05-09T13:29:45;12.38;92.97
78611;SHT30;67932;50.474;4.436;2023-05-09T13:32:11;12.38;92.80
78611;SHT30;67932;50.474;4.436;2023-05-09T13:34:37;12.32;92.21
78611;SHT30;67932;50.474;4.436;2023-05-09T13:37:03;12.29;92.55
78611;SHT30;67932;50.474;4.436;2023-05-09T13:39:30;12.31;93.92
78611;SHT30;67932;50.474;4.436;2023-05-09T13:41:56;12.32;93.87
78611;SHT30;67932;50.474;4.436;2023-05-09T13:44:23;12.36;93.27
78611;SHT30;67932;50.474;4.436;2023-05-09T13:46:50;12.33;92.73
78611;SHT30;67932;50.474;4.436;2023-05-09T13:49:17;12.42;93.14
78611;SHT30;67932;50.474;4.436;2023-05-09T13:51:44;12.39;94.03
78611;SHT30;67932;50.474;4.436;2023-05-09T13:54:10;12.43;93.78
78611;SHT30;67932;50.474;4.436;2023-05-09T13:56:42;12.32;93.65
78611;SHT30;67932;50.474;4.436;2023-05-09T13:59:09;12.38;93.35
78611;SHT30;67932;50.474;4.436;2023-05-09T14:01:35;12.39;93.76
78611;SHT30;67932;50.474;4.436;2023-05-09T14:04:01;12.19;92.77
78611;SHT30;67932;50.474;4.436;2023-05-09T14:06:28;12.25;93.12
78611;SHT30;67932;50.474;4.436;2023-05-09T14:08:57;12.21;92.74
78611;SHT30;67932;50.474;4.436;2023-05-09T14:11:24;12.22;93.31
78611;SHT30;67932;50.474;4.436;2023-05-09T14:13:53;12.18;92.93
78611;SHT30;67932;50.474;4.436;2023-05-09T14:16:20;12.15;92.53
78611;SHT30;67932;50.474;4.436;2023-05-09T14:18:47;12.19;93.28
78611;SHT30;67932;50.474;4.436;2023-05-09T14:21:13;12.19;92.84
78611;SHT30;67932;50.474;4.436;2023-05-09T14:23:41;12.14;93.29
78611;SHT30;67932;50.474;4.436;2023-05-09T14:26:07;12.21;93.03
78611;SHT30;67932;50.474;4.436;2023-05-09T14:28:33;12.21;92.91
78611;SHT30;67932;50.474;4.436;2023-05-09T14:31:01;12.17;93.00
78611;SHT30;67932;50.474;4.436;2023-05-09T14:33:27;12.26;93.06
78611;SHT30;67932;50.474;4.436;2023-05-09T14:35:54;12.21;93.18
78611;SHT30;67932;50.474;4.436;2023-05-09T14:38:20;12.24;93.33
78611;SHT30;67932;50.474;4.436;2023-05-09T14:40:46;12.25;93.44
78611;SHT30;67932;50.474;4.436;2023-05-09T14:43:12;12.33;93.19
78611;SHT30;67932;50.474;4.436;2023-05-09T14:45:39;12.22;92.52
78611;SHT30;67932;50.474;4.436;2023-05-09T14:48:05;12.24;93.21
78611;SHT30;67932;50.474;4.436;2023-05-09T14:50:31;12.32;93.40
78611;SHT30;67932;50.474;4.436;2023-05-09T14:52:58;12.31;93.05
78611;SHT30;67932;50.474;4.436;2023-05-09T14:55:25;12.35;94.31
78611;SHT30;67932;50.474;4.436;2023-05-09T14:57:52;12.35;94.29
78611;SHT30;67932;50.474;4.436;2023-05-09T15:00:19;12.33;94.09
78611;SHT30;67932;50.474;4.436;2023-05-09T15:02:45;12.36;93.81
78611;SHT30;67932;50.474;4.436;2023-05-09T15:05:12;12.19;92.43
78611;SHT30;67932;50.474;4.436;2023-05-09T15:07:38;12.14;92.64
78611;SHT30;67932;50.474;4.436;2023-05-09T15:10:05;12.18;93.68
78611;SHT30;67932;50.474;4.436;2023-05-09T15:12:32;12.22;93.81
78611;SHT30;67932;50.474;4.436;2023-05-09T15:15:12;12.21;93.34
78611;SHT30;67932;50.474;4.436;2023-05-09T15:17:39;12.15;93.15
78611;SHT30;67932;50.474;4.436;2023-05-09T15:20:06;12.24;92.98
78611;SHT30;67932;50.474;4.436;2023-05-09T15:22:33;12.24;93.47
78611;SHT30;67932;50.474;4.436;2023-05-09T15:25:00;12.25;93.74
78611;SHT30;67932;50.474;4.436;2023-05-09T15:27:27;12.32;94.31
78611;SHT30;67932;50.474;4.436;2023-05-09T15:29:53;12.33;93.53
78611;SHT30;67932;50.474;4.436;2023-05-09T15:32:20;12.35;93.34
78611;SHT30;67932;50.474;4.436;2023-05-09T15:34:46;12.21;92.91
78611;SHT30;67932;50.474;4.436;2023-05-09T15:37:13;12.36;93.69
78611;SHT30;67932;50.474;4.436;2023-05-09T15:39:39;12.46;93.89
78611;SHT30;67932;50.474;4.436;2023-05-09T15:42:10;12.41;94.13
78611;SHT30;67932;50.474;4.436;2023-05-09T15:44:40;12.46;93.99
78611;SHT30;67932;50.474;4.436;2023-05-09T15:47:07;12.42;93.65
78611;SHT30;67932;50.474;4.436;2023-05-09T15:49:34;12.53;93.43
78611;SHT30;67932;50.474;4.436;2023-05-09T15:52:05;12.52;93.19
78611;SHT30;67932;50.474;4.436;2023-05-09T15:54:32;12.48;93.15
78611;SHT30;67932;50.474;4.436;2023-05-09T15:56:58;12.55;93.69